AirNav  
 
Fuel
  

2T4 Hayesport Airport
Collinsville, Texas, USA

GOING TO COLLINSVILLE?

Reserve a HOTEL

FAA INFORMATION EFFECTIVE 30 OCTOBER 2003

Location

FAA Identifier: 2T4
Lat/Long: 33-32-36.397N / 096-58-31.020W
33-32.60662N / 096-58.51700W
33.5434436 / -96.9752833
(estimated)
Elevation: 723 ft. / 220 m (estimated)
Variation: 07E (1985)
From city: 3 miles W of COLLINSVILLE, TX

Airport Operations

Airport use: Open to the public
Activation date: 03/1991
Sectional chart: DALLAS-FT WORTH BUY IT NOW
Control tower: no
ARTCC: FORT WORTH CENTER
FSS: FORT WORTH FLIGHT SERVICE STATION [1-800-WX-BRIEF]
NOTAMs facility: FTW (NOTAM-D service available)
Attendance: UNATNDD
Wind indicator: yes
Segmented circle: no
Beacon: unknown

Airport Communications

CTAF: 122.9
WX AWOS-3 at GLE (13 nm NW): 118.375 (940-612-3549)
WX AWOS-3 at GYI (18 nm NE): 118.775 (903-786-7790)

Nearby radio navigation aids

VOR radial/distance  VOR name  Freq  Var
BYPr265/37.1BONHAM VORTAC114.6006E
URHr225/37.8TEXOMA VOR/DME114.3005E
CVEr349/39.4COWBOY VOR/DME116.2006E

 
NDB name  Hdg/Dist  Freq  Var  ID
GAINESVILLE127/15.333006EGLE --. .-.. .
DENISON216/22.734106EDNI -.. -. ..
ARBUCKLE161/37.228407EAUV .- ..- ...-
DURANT225/37.435905EDUA -.. ..- .-

Airport Services

Airframe service: MINOR
Powerplant service: MINOR

Runway Information

Runway 18/36

Dimensions: 2800 x 70 ft. / 853 x 21 m
Surface: turf
RUNWAY 18  RUNWAY 36
Traffic pattern: leftleft
Obstructions: 4 ft. fence, 10 ft. from runway, 2:1 slope to clear10 ft. brush, 10 ft. from runway, 40 ft. left of centerline, 1:1 slope to clear

Airport Operational Statistics

Aircraft based on the field: 7
Single engine airplanes: 7
    
Aircraft operations: 50/year
100% transient general aviation
 
Loc | Ops | Rwys | FBO | Links
Com | Nav | Svcs | Stats | Notes
 
Area around 2T4 (Hayesport Airport)
 
Aerial photo of 2T4 (Hayesport Airport)
 
Airport distance calculator
Flying to Hayesport Airport? Find the distance to fly.

From to 2T4

Sunrise and sunset
Times for 12-Dec-2003
 Local
(UTC-6)
 Zulu
(UTC)
Morning civil twilight06:5612:56
Sunrise07:2413:24
Sunset17:1923:19
Evening civil twilight17:4723:47
 
METAR
KGLE 122046Z AUTO 10010KT 4SM RA BKN026 OVC033 05/04 A2993
KGYI 122045Z AUTO 07007KT 10SM RA SCT027 BKN039 OVC065 04/02 A2992 RMK AO2 P0003 LTG DSNT S
KDTO 122036Z AUTO 09010KT 6SM -RA BR BKN025 OVC045 06/05 A2990 RMK AO2 P0011
TAF
KDFW 120809Z 120806 12005KT P6SM SCT150
FM0830 13006KT P6SM BKN050
FM1100 13005KT P6SM BKN020 OVC050
FM1700 10008KT 5SM BR BKN015 OVC030
FM1900 10012KT 4SM -RA BR BKN008 OVC015
FM0000 10013KT 2SM -RA BR OVC006
FM0500 02013KT 4SM -DZ BR OVC004
KDAL 121115Z 121106 13006KT P6SM BKN020 OVC030
TEMPO 1113 5SM -RA OVC020
FM1700 10008KT 5SM BR BKN015 OVC030
FM1900 10012KT 4SM -RA BR BKN008 OVC015
FM0000 10013KT 2SM -RA BR OVC006
FM0500 02013KT 4SM -DZ BR OVC004
KFTW 121118Z 121106 13005KT P6SM BKN020 OVC050
TEMPO 1112 6SM -RA OVC020
FM1700 10008KT 5SM BR BKN015 OVC030
FM1900 10012KT 4SM -RA BR BKN008 OVC015
FM0000 10013KT 2SM -RA BR OVC006
FM0500 02013KT 4SM -DZ BR OVC004

 
 

Aviation Businesses, Services, and Facilities

 Business Name   Contact   Services / Description Comments
Hayesport Aircraft Services 903-429-6866
903-429-8164
[email]
Aircraft maintenance, Aircraft parts, Restrooms    add
 

Where to Stay: Hotels, Motels, Resorts, B&Bs, Campgrounds

 In this space we feature lodging establishments that are convenient to the Hayesport Airport. If your hotel/inn/B&B/resort is near the Hayesport Airport, provides convenient transportation, or is otherwise attractive to pilots, flight crews, and airport users, consider listing it here.  
Feature A Hotel
 

Hotels in other cities near Hayesport Airport

In Gainesville
 
 

Other Pages about Hayesport Airport

Add a link
 
Copyright © AirNav, LLC. All rights reserved. Privacy Policy  Contact